createdAt,value
2018-07-10T00:00:49.910Z,0.00
2018-07-10T00:01:49.900Z,0.00
2018-07-10T00:02:49.864Z,0.00
2018-07-10T00:03:49.890Z,0.00
2018-07-10T00:04:49.827Z,0.00
2018-07-10T00:05:49.839Z,0.00
2018-07-10T00:06:49.823Z,0.00
2018-07-10T00:07:49.810Z,0.00
2018-07-10T00:08:49.765Z,0.00
2018-07-10T00:09:49.738Z,0.00
2018-07-10T00:10:49.732Z,0.00
2018-07-10T00:11:49.733Z,0.00
2018-07-10T00:12:49.701Z,0.00
2018-07-10T00:13:49.680Z,0.00
2018-07-10T00:14:49.660Z,0.00
2018-07-10T00:15:49.627Z,0.00
2018-07-10T00:16:49.628Z,0.00
2018-07-10T00:17:49.606Z,0.00
2018-07-10T00:18:49.589Z,0.00
2018-07-10T00:19:49.573Z,0.00
2018-07-10T00:20:49.553Z,0.00
2018-07-10T00:21:49.577Z,0.00
2018-07-10T00:22:49.505Z,0.00
2018-07-10T00:23:49.540Z,0.00
2018-07-10T00:24:49.468Z,0.00
2018-07-10T00:25:49.463Z,0.00
2018-07-10T00:26:49.467Z,0.00
2018-07-10T00:27:49.422Z,0.00
2018-07-10T00:28:49.396Z,0.00
2018-07-10T00:29:49.396Z,0.00
2018-07-10T00:30:49.359Z,0.00
2018-07-10T00:31:49.351Z,0.00
2018-07-10T00:32:49.334Z,0.00
2018-07-10T00:33:49.311Z,0.00
2018-07-10T00:34:49.294Z,0.00
2018-07-10T00:35:49.296Z,0.00
2018-07-10T00:36:49.255Z,0.00
2018-07-10T00:37:49.260Z,0.00
2018-07-10T00:38:49.245Z,0.00
2018-07-10T00:39:49.233Z,0.00
2018-07-10T00:40:49.222Z,0.00
2018-07-10T00:41:49.205Z,0.00
2018-07-10T00:42:49.157Z,0.00
2018-07-10T00:43:49.127Z,0.00
2018-07-10T00:44:49.109Z,0.00
2018-07-10T00:45:49.110Z,0.00
2018-07-10T00:46:49.105Z,0.00
2018-07-10T00:47:49.054Z,0.00
2018-07-10T00:48:49.044Z,0.00
2018-07-10T00:49:49.028Z,0.00
2018-07-10T00:50:49.009Z,0.00
2018-07-10T00:51:48.998Z,0.00
2018-07-10T00:52:49.005Z,0.00
2018-07-10T00:53:48.963Z,0.00
2018-07-10T00:54:48.927Z,0.00
2018-07-10T00:55:48.936Z,0.00
2018-07-10T00:56:48.906Z,0.00
2018-07-10T00:57:48.880Z,0.00
2018-07-10T00:58:48.861Z,0.00
2018-07-10T00:59:48.848Z,0.00
2018-07-10T01:00:48.835Z,0.00
2018-07-10T01:01:48.810Z,0.00
2018-07-10T01:02:48.789Z,0.00
2018-07-10T01:03:48.790Z,0.00
2018-07-10T01:04:48.769Z,0.00
2018-07-10T01:05:48.767Z,0.00
2018-07-10T01:06:48.736Z,0.00
2018-07-10T01:07:48.744Z,0.00
2018-07-10T01:08:48.699Z,0.00
2018-07-10T01:09:48.662Z,0.00
2018-07-10T01:10:48.668Z,0.00
2018-07-10T01:11:48.651Z,0.00
2018-07-10T01:12:48.615Z,0.00
2018-07-10T01:13:48.583Z,0.00
2018-07-10T01:14:48.584Z,0.00
2018-07-10T01:15:48.583Z,0.00
2018-07-10T01:16:48.568Z,0.00
2018-07-10T01:17:48.525Z,0.00
2018-07-10T01:18:48.524Z,0.00
2018-07-10T01:19:48.485Z,0.00
2018-07-10T01:20:48.499Z,0.00
2018-07-10T01:21:48.474Z,0.00
2018-07-10T01:22:48.463Z,0.00
2018-07-10T01:23:48.406Z,0.00
2018-07-10T01:24:48.400Z,0.00
2018-07-10T01:25:48.367Z,0.00
2018-07-10T01:26:48.352Z,0.00
2018-07-10T01:27:48.346Z,0.00
2018-07-10T01:28:48.336Z,0.00
2018-07-10T01:29:48.296Z,0.00
2018-07-10T01:30:48.290Z,0.00
2018-07-10T01:31:48.298Z,0.00
2018-07-10T01:32:48.239Z,0.00
2018-07-10T01:33:48.362Z,0.00
2018-07-10T01:34:48.227Z,0.00
2018-07-10T01:35:48.193Z,0.00
2018-07-10T01:36:48.179Z,0.00
2018-07-10T01:37:48.170Z,0.00
2018-07-10T01:38:48.135Z,0.00
2018-07-10T01:39:48.126Z,0.00
2018-07-10T01:40:48.096Z,0.00
2018-07-10T01:41:48.096Z,0.00
2018-07-10T01:42:48.062Z,0.00
2018-07-10T01:43:48.040Z,0.00
2018-07-10T01:44:48.033Z,0.00
2018-07-10T01:45:48.015Z,0.00
2018-07-10T01:46:47.993Z,0.00
2018-07-10T01:47:47.997Z,0.00
2018-07-10T01:48:47.948Z,0.00
2018-07-10T01:49:47.934Z,0.00
2018-07-10T01:50:47.913Z,0.00
2018-07-10T01:51:47.916Z,0.00
2018-07-10T01:52:47.898Z,0.00
2018-07-10T01:53:47.873Z,0.00
2018-07-10T01:54:47.840Z,0.00
2018-07-10T01:55:47.844Z,0.00
2018-07-10T01:56:47.808Z,0.00
2018-07-10T01:57:47.790Z,0.00
2018-07-10T01:58:47.772Z,0.00
2018-07-10T01:59:47.762Z,0.00
2018-07-10T02:00:47.733Z,0.00
2018-07-10T02:01:47.736Z,0.00
2018-07-10T02:02:47.707Z,0.00
2018-07-10T02:03:47.688Z,0.00
2018-07-10T02:04:47.666Z,0.00
2018-07-10T02:05:47.644Z,0.00
2018-07-10T02:06:47.627Z,0.00
2018-07-10T02:07:47.615Z,0.00
2018-07-10T02:08:47.612Z,0.00
2018-07-10T02:09:47.572Z,0.00
2018-07-10T02:10:47.587Z,0.00
2018-07-10T02:11:47.541Z,0.00
2018-07-10T02:12:47.542Z,0.00
2018-07-10T02:13:47.502Z,0.00
2018-07-10T02:14:47.500Z,0.00
2018-07-10T02:15:47.477Z,0.00
2018-07-10T02:16:47.462Z,0.00
2018-07-10T02:17:47.452Z,0.00
2018-07-10T02:18:47.416Z,0.00
2018-07-10T02:19:47.386Z,0.00
2018-07-10T02:20:47.390Z,0.00
2018-07-10T02:21:47.367Z,0.00
2018-07-10T02:22:47.356Z,0.00
2018-07-10T02:23:47.310Z,0.00
2018-07-10T02:24:47.290Z,0.00
2018-07-10T02:25:47.286Z,0.00
2018-07-10T02:26:47.260Z,0.00
2018-07-10T02:27:47.249Z,0.00
2018-07-10T02:28:47.233Z,0.00
2018-07-10T02:29:47.219Z,0.00
2018-07-10T02:30:47.200Z,0.00
2018-07-10T02:31:47.165Z,0.00
2018-07-10T02:32:47.176Z,0.00
2018-07-10T02:33:47.148Z,0.00
2018-07-10T02:34:47.129Z,0.00
2018-07-10T02:35:47.087Z,0.00
2018-07-10T02:36:47.082Z,0.00
2018-07-10T02:37:47.071Z,0.00
2018-07-10T02:38:47.064Z,0.00
2018-07-10T02:39:47.013Z,0.00
2018-07-10T02:40:47.004Z,0.00
2018-07-10T02:41:46.980Z,0.00
2018-07-10T02:42:46.981Z,0.00
2018-07-10T02:43:46.952Z,0.00
2018-07-10T02:44:46.935Z,0.00
2018-07-10T02:45:46.905Z,0.00
2018-07-10T02:46:46.897Z,0.00
2018-07-10T02:47:46.870Z,0.00
2018-07-10T02:48:46.861Z,0.00
2018-07-10T02:49:46.863Z,0.00
2018-07-10T02:50:46.843Z,0.00
2018-07-10T02:51:46.807Z,0.00
2018-07-10T02:52:46.787Z,0.00
2018-07-10T02:53:46.767Z,0.00
2018-07-10T02:54:46.757Z,4.00
2018-07-10T02:55:46.722Z,4.00
2018-07-10T02:56:46.715Z,0.00
2018-07-10T02:57:46.685Z,0.00
2018-07-10T02:58:46.669Z,4.00
2018-07-10T02:59:46.681Z,4.00
2018-07-10T03:00:46.626Z,4.00
2018-07-10T03:01:46.617Z,8.00
2018-07-10T03:02:46.627Z,4.00
2018-07-10T03:03:46.598Z,8.00
2018-07-10T03:04:46.562Z,8.00
2018-07-10T03:05:46.550Z,8.00
2018-07-10T03:06:46.543Z,8.00
2018-07-10T03:07:46.532Z,8.00
2018-07-10T03:08:46.485Z,12.00
2018-07-10T03:09:46.482Z,16.00
2018-07-10T03:10:46.451Z,16.00
2018-07-10T03:11:46.442Z,20.00
2018-07-10T03:12:46.409Z,16.00
2018-07-10T03:13:46.396Z,20.00
2018-07-10T03:14:46.379Z,20.00
2018-07-10T03:15:46.384Z,24.00
2018-07-10T03:16:46.351Z,24.00
2018-07-10T03:17:46.327Z,28.00
2018-07-10T03:18:46.330Z,32.00
2018-07-10T03:19:46.312Z,36.00
2018-07-10T03:20:46.256Z,36.00
2018-07-10T03:21:46.259Z,44.00
2018-07-10T03:22:46.221Z,48.00
2018-07-10T03:23:46.250Z,48.00
2018-07-10T03:24:46.191Z,52.00
2018-07-10T03:25:46.171Z,56.00
2018-07-10T03:26:46.182Z,64.00
2018-07-10T03:27:46.139Z,68.00
2018-07-10T03:28:46.127Z,76.00
2018-07-10T03:29:46.094Z,80.00
2018-07-10T03:30:46.078Z,80.00
2018-07-10T03:31:46.101Z,84.00
2018-07-10T03:32:46.039Z,92.00
2018-07-10T03:33:46.020Z,96.00
2018-07-10T03:34:45.998Z,100.00
2018-07-10T03:35:45.982Z,112.00
2018-07-10T03:36:45.964Z,116.00
2018-07-10T03:37:45.942Z,128.00
2018-07-10T03:38:45.960Z,140.00
2018-07-10T03:39:45.918Z,152.00
2018-07-10T03:40:45.885Z,164.00
2018-07-10T03:41:45.871Z,180.00
2018-07-10T03:42:45.892Z,196.00
2018-07-10T03:43:45.860Z,204.00
2018-07-10T03:44:45.855Z,208.00
2018-07-10T03:45:45.794Z,216.00
2018-07-10T03:46:45.803Z,224.00
2018-07-10T03:47:45.789Z,232.00
2018-07-10T03:48:45.737Z,248.00
2018-07-10T03:49:45.744Z,264.00
2018-07-10T03:50:45.747Z,272.00
2018-07-10T03:51:45.686Z,280.00
2018-07-10T03:52:45.661Z,280.00
2018-07-10T03:53:45.664Z,280.00
2018-07-10T03:54:45.646Z,288.00
2018-07-10T03:55:45.633Z,292.00
2018-07-10T03:56:45.608Z,304.00
2018-07-10T03:57:45.595Z,300.00
2018-07-10T03:58:45.561Z,292.00
2018-07-10T03:59:45.559Z,300.00
2018-07-10T04:00:45.540Z,304.00
2018-07-10T04:01:45.560Z,300.00
2018-07-10T04:02:45.485Z,284.00
2018-07-10T04:03:45.474Z,272.00
2018-07-10T04:04:45.469Z,260.00
2018-07-10T04:05:45.427Z,252.00
2018-07-10T04:06:45.405Z,252.00
2018-07-10T04:07:45.393Z,248.00
2018-07-10T04:08:45.395Z,260.00
2018-07-10T04:09:45.348Z,264.00
2018-07-10T04:10:45.344Z,280.00
2018-07-10T04:11:45.374Z,296.00
2018-07-10T04:12:45.310Z,304.00
2018-07-10T04:13:45.277Z,312.00
2018-07-10T04:14:45.260Z,308.00
2018-07-10T04:15:45.253Z,348.00
2018-07-10T04:16:45.237Z,400.00
2018-07-10T04:17:45.224Z,420.00
2018-07-10T04:18:45.191Z,452.00
2018-07-10T04:19:45.184Z,516.00
2018-07-10T04:20:45.177Z,568.00
2018-07-10T04:21:45.138Z,616.00
2018-07-10T04:22:45.153Z,764.00
2018-07-10T04:23:45.120Z,888.00
2018-07-10T04:24:45.106Z,960.00
2018-07-10T04:25:45.094Z,988.00
2018-07-10T04:26:45.037Z,1000.00
2018-07-10T04:27:45.015Z,1016.00
2018-07-10T04:28:45.004Z,1068.00
2018-07-10T04:29:44.997Z,1164.00
2018-07-10T04:30:44.967Z,1020.00
2018-07-10T04:31:44.981Z,996.00
2018-07-10T04:32:44.947Z,920.00
2018-07-10T04:33:44.919Z,1000.00
2018-07-10T04:34:44.898Z,1128.00
2018-07-10T04:35:44.875Z,1212.00
2018-07-10T04:36:44.872Z,1300.00
2018-07-10T04:37:44.837Z,1412.00
2018-07-10T04:38:44.818Z,1444.00
2018-07-10T04:39:44.793Z,1348.00
2018-07-10T04:40:44.799Z,1344.00
2018-07-10T04:41:44.755Z,1436.00
2018-07-10T04:42:44.749Z,1396.00
2018-07-10T04:43:44.739Z,1400.00
2018-07-10T04:44:44.739Z,1280.00
2018-07-10T04:45:44.680Z,1136.00
2018-07-10T04:46:44.665Z,1112.00
2018-07-10T04:47:44.648Z,1164.00
2018-07-10T04:48:44.640Z,1136.00
2018-07-10T04:49:44.630Z,1124.00
2018-07-10T04:50:44.614Z,1144.00
2018-07-10T04:51:44.576Z,1164.00
2018-07-10T04:52:44.584Z,1164.00
2018-07-10T04:53:44.553Z,1292.00
2018-07-10T04:54:44.547Z,1308.00
2018-07-10T04:55:44.501Z,1352.00
2018-07-10T04:56:44.500Z,1360.00
2018-07-10T04:57:44.475Z,1456.00
2018-07-10T04:58:44.449Z,1548.00
2018-07-10T04:59:44.450Z,1508.00
2018-07-10T05:00:44.430Z,1544.00
2018-07-10T05:01:44.416Z,1820.00
2018-07-10T05:02:44.368Z,1936.00
2018-07-10T05:03:44.382Z,2124.00
2018-07-10T05:04:44.380Z,2052.00
2018-07-10T05:05:44.367Z,2008.00
2018-07-10T05:06:44.298Z,2076.00
2018-07-10T05:07:44.303Z,2148.00
2018-07-10T05:08:44.266Z,2304.00
2018-07-10T05:09:44.238Z,2440.00
2018-07-10T05:10:44.220Z,2524.00
2018-07-10T05:11:44.204Z,2548.00
2018-07-10T05:12:44.188Z,2556.00
2018-07-10T05:13:44.190Z,2504.00
2018-07-10T05:14:44.149Z,2432.00
2018-07-10T05:15:44.140Z,2384.00
2018-07-10T05:16:44.139Z,2364.00
2018-07-10T05:17:44.132Z,2464.00
2018-07-10T05:18:44.075Z,2572.00
2018-07-10T05:19:44.063Z,2680.00
2018-07-10T05:20:44.040Z,2752.00
2018-07-10T05:21:44.025Z,2724.00
2018-07-10T05:22:44.035Z,2628.00
2018-07-10T05:23:43.997Z,2496.00
2018-07-10T05:24:43.987Z,2408.00
2018-07-10T05:25:43.949Z,2308.00
2018-07-10T05:26:43.936Z,2184.00
2018-07-10T05:27:43.913Z,2148.00
2018-07-10T05:28:43.965Z,2084.00
2018-07-10T05:29:43.877Z,2144.00
2018-07-10T05:30:43.868Z,2280.00
2018-07-10T05:31:43.849Z,2444.00
2018-07-10T05:32:43.869Z,2564.00
2018-07-10T05:33:43.814Z,2684.00
2018-07-10T05:34:43.806Z,2804.00
2018-07-10T05:35:43.772Z,2968.00
2018-07-10T05:36:43.761Z,3128.00
2018-07-10T05:37:43.775Z,3092.00
2018-07-10T05:38:43.714Z,3132.00
2018-07-10T05:39:43.694Z,3156.00
2018-07-10T05:40:43.702Z,3264.00
2018-07-10T05:41:43.696Z,3344.00
2018-07-10T05:42:43.646Z,3340.00
2018-07-10T05:43:43.655Z,3404.00
2018-07-10T05:44:43.614Z,3420.00
2018-07-10T05:45:43.595Z,3472.00
2018-07-10T05:46:43.573Z,3400.00
2018-07-10T05:47:43.566Z,3196.00
2018-07-10T05:48:43.532Z,3496.00
2018-07-10T05:49:43.535Z,3732.00
2018-07-10T05:50:43.523Z,4316.00
2018-07-10T05:51:43.523Z,4128.00
2018-07-10T05:52:43.473Z,4240.00
2018-07-10T05:53:43.463Z,3940.00
2018-07-10T05:54:43.448Z,4516.00
2018-07-10T05:55:43.431Z,4708.00
2018-07-10T05:56:43.405Z,6200.00
2018-07-10T05:57:43.384Z,8340.00
2018-07-10T05:58:43.482Z,5672.00
2018-07-10T05:59:43.348Z,5868.00
2018-07-10T06:00:43.324Z,5312.00
2018-07-10T06:01:43.341Z,4556.00
2018-07-10T06:02:43.316Z,4356.00
2018-07-10T06:03:43.269Z,3632.00
2018-07-10T06:04:43.317Z,3540.00
2018-07-10T06:05:43.241Z,3236.00
2018-07-10T06:06:43.227Z,3172.00
2018-07-10T06:07:43.216Z,3380.00
2018-07-10T06:08:43.219Z,3316.00
2018-07-10T06:09:43.185Z,3192.00
2018-07-10T06:10:43.171Z,3300.00
2018-07-10T06:11:43.175Z,3396.00
2018-07-10T06:12:43.125Z,3656.00
2018-07-10T06:13:43.124Z,3672.00
2018-07-10T06:14:43.096Z,3252.00
2018-07-10T06:15:43.081Z,3072.00
2018-07-10T06:16:43.077Z,3520.00
2018-07-10T06:17:43.041Z,3396.00
2018-07-10T06:18:43.028Z,2932.00
2018-07-10T06:19:43.006Z,2320.00
2018-07-10T06:20:43.009Z,2348.00
2018-07-10T06:21:42.969Z,1720.00
2018-07-10T06:22:42.962Z,1844.00
2018-07-10T06:23:42.955Z,2024.00
2018-07-10T06:24:42.944Z,2428.00
2018-07-10T06:25:42.916Z,2724.00
2018-07-10T06:26:42.924Z,3372.00
2018-07-10T06:27:42.868Z,2916.00
2018-07-10T06:28:42.895Z,2656.00
2018-07-10T06:29:42.850Z,2920.00
2018-07-10T06:30:42.828Z,3352.00
2018-07-10T06:31:42.826Z,3464.00
2018-07-10T06:32:42.797Z,3544.00
2018-07-10T06:33:42.779Z,2988.00
2018-07-10T06:34:42.759Z,2484.00
2018-07-10T06:35:42.763Z,2208.00
2018-07-10T06:36:42.745Z,2344.00
2018-07-10T06:37:42.701Z,2380.00
2018-07-10T06:38:42.709Z,1668.00
2018-07-10T06:39:42.713Z,1316.00
2018-07-10T06:40:42.659Z,1440.00
2018-07-10T06:41:42.667Z,1648.00
2018-07-10T06:42:42.633Z,1816.00
2018-07-10T06:43:42.596Z,1736.00
2018-07-10T06:44:42.590Z,2040.00
2018-07-10T06:45:42.564Z,2844.00
2018-07-10T06:46:42.553Z,3636.00
2018-07-10T06:47:42.550Z,3592.00
2018-07-10T06:48:42.543Z,3204.00
2018-07-10T06:49:42.522Z,2864.00
2018-07-10T06:50:42.481Z,2180.00
2018-07-10T06:51:42.469Z,2208.00
2018-07-10T06:52:42.633Z,2880.00
2018-07-10T06:53:42.554Z,3592.00
2018-07-10T06:54:42.416Z,3352.00
2018-07-10T06:55:42.432Z,3648.00
2018-07-10T06:56:42.372Z,3172.00
2018-07-10T06:57:42.371Z,2748.00
2018-07-10T06:58:42.353Z,2688.00
2018-07-10T06:59:42.319Z,3144.00
2018-07-10T07:00:42.346Z,3908.00
2018-07-10T07:01:42.304Z,3408.00
2018-07-10T07:02:42.303Z,2844.00
2018-07-10T07:03:42.249Z,2528.00
2018-07-10T07:04:42.255Z,2536.00
2018-07-10T07:05:42.217Z,2232.00
2018-07-10T07:06:42.198Z,2356.00
2018-07-10T07:07:42.224Z,2276.00
2018-07-10T07:08:42.202Z,2484.00
2018-07-10T07:09:42.161Z,1712.00
2018-07-10T07:10:42.196Z,1932.00
2018-07-10T07:11:42.146Z,2956.00
2018-07-10T07:12:42.113Z,1888.00
2018-07-10T07:13:42.080Z,1532.00
2018-07-10T07:14:42.066Z,2384.00
2018-07-10T07:15:42.076Z,2468.00
2018-07-10T07:16:42.066Z,2260.00
2018-07-10T07:17:42.016Z,2104.00
2018-07-10T07:18:41.997Z,1732.00
2018-07-10T07:19:41.972Z,1808.00
2018-07-10T07:20:41.973Z,1908.00
2018-07-10T07:21:41.985Z,2224.00
2018-07-10T07:22:41.927Z,3244.00
2018-07-10T07:23:41.927Z,3348.00
2018-07-10T07:24:41.885Z,2808.00
2018-07-10T07:25:41.861Z,3092.00
2018-07-10T07:26:41.849Z,3896.00
2018-07-10T07:27:41.850Z,3928.00
2018-07-10T07:28:41.810Z,4044.00
2018-07-10T07:29:41.824Z,3640.00
2018-07-10T07:30:41.786Z,3656.00
2018-07-10T07:31:41.782Z,3876.00
2018-07-10T07:32:41.765Z,3724.00
2018-07-10T07:33:41.734Z,4700.00
2018-07-10T07:34:41.770Z,4512.00
2018-07-10T07:35:41.703Z,3948.00
2018-07-10T07:36:41.731Z,2412.00
2018-07-10T07:37:41.667Z,2400.00
2018-07-10T07:38:41.697Z,2652.00
2018-07-10T07:39:41.646Z,2792.00
2018-07-10T07:40:41.619Z,2520.00
2018-07-10T07:41:41.584Z,2364.00
2018-07-10T07:42:41.566Z,2300.00
2018-07-10T07:43:41.594Z,1988.00
2018-07-10T07:44:41.550Z,2540.00
2018-07-10T07:45:41.533Z,3136.00
2018-07-10T07:46:41.503Z,3456.00
2018-07-10T07:47:41.476Z,3912.00
2018-07-10T07:48:41.503Z,3220.00
2018-07-10T07:49:41.467Z,2912.00
2018-07-10T07:50:41.424Z,4060.00
2018-07-10T07:51:41.429Z,4420.00
2018-07-10T07:52:41.389Z,4276.00
2018-07-10T07:53:41.416Z,4440.00
2018-07-10T07:54:41.403Z,4460.00
2018-07-10T07:55:41.371Z,4056.00
2018-07-10T07:56:41.331Z,4760.00
2018-07-10T07:57:41.311Z,4956.00
2018-07-10T07:58:41.291Z,4476.00
2018-07-10T07:59:41.298Z,4868.00
2018-07-10T08:00:41.255Z,4412.00
2018-07-10T08:01:41.255Z,4520.00
2018-07-10T08:02:41.231Z,4324.00
2018-07-10T08:03:41.247Z,3872.00
2018-07-10T08:04:41.199Z,3336.00
2018-07-10T08:05:41.185Z,2648.00
2018-07-10T08:06:41.171Z,2684.00
2018-07-10T08:07:41.136Z,2856.00
2018-07-10T08:08:41.117Z,2760.00
2018-07-10T08:09:41.119Z,2384.00
2018-07-10T08:10:41.090Z,2228.00
2018-07-10T08:11:41.077Z,1868.00
2018-07-10T08:12:41.049Z,1800.00
2018-07-10T08:13:41.036Z,1672.00
2018-07-10T08:14:41.066Z,1812.00
2018-07-10T08:15:41.004Z,2176.00
2018-07-10T08:16:40.994Z,2608.00
2018-07-10T08:17:40.963Z,3504.00
2018-07-10T08:18:40.943Z,3732.00
2018-07-10T08:19:40.946Z,3612.00
2018-07-10T08:20:40.905Z,3700.00
2018-07-10T08:21:40.893Z,3752.00
2018-07-10T08:22:40.885Z,3744.00
2018-07-10T08:23:40.864Z,3544.00
2018-07-10T08:24:40.847Z,3320.00
2018-07-10T08:25:40.825Z,3204.00
2018-07-10T08:26:40.815Z,2988.00
2018-07-10T08:27:40.787Z,2628.00
2018-07-10T08:28:40.770Z,2452.00
2018-07-10T08:29:40.766Z,2404.00
2018-07-10T08:30:40.735Z,2460.00
2018-07-10T08:31:40.725Z,2748.00
2018-07-10T08:32:40.730Z,2708.00
2018-07-10T08:33:40.742Z,3544.00
2018-07-10T08:34:40.662Z,3240.00
2018-07-10T08:35:40.674Z,2616.00
2018-07-10T08:36:40.668Z,2088.00
2018-07-10T08:37:40.660Z,2124.00
2018-07-10T08:38:40.605Z,2616.00
2018-07-10T08:39:40.577Z,3500.00
2018-07-10T08:40:40.585Z,3764.00
2018-07-10T08:41:40.553Z,3788.00
2018-07-10T08:42:40.542Z,3436.00
2018-07-10T08:43:40.532Z,3072.00
2018-07-10T08:44:40.517Z,2776.00
2018-07-10T08:45:40.473Z,2604.00
2018-07-10T08:46:40.464Z,2356.00
2018-07-10T08:47:40.447Z,2276.00
2018-07-10T08:48:40.453Z,2476.00
2018-07-10T08:49:40.436Z,3196.00
2018-07-10T08:50:40.444Z,3408.00
2018-07-10T08:51:40.387Z,3504.00
2018-07-10T08:52:40.356Z,3980.00
2018-07-10T08:53:40.372Z,4652.00
2018-07-10T08:54:40.319Z,4180.00
2018-07-10T08:55:40.320Z,4504.00
2018-07-10T08:56:40.287Z,4660.00
2018-07-10T08:57:40.286Z,5496.00
2018-07-10T08:58:40.240Z,5016.00
2018-07-10T08:59:40.323Z,5852.00
2018-07-10T09:00:40.249Z,6064.00
2018-07-10T09:01:40.210Z,6452.00
2018-07-10T09:02:40.182Z,6596.00
2018-07-10T09:03:40.165Z,6780.00
2018-07-10T09:04:40.137Z,6676.00
2018-07-10T09:05:40.142Z,6404.00
2018-07-10T09:06:40.128Z,6072.00
2018-07-10T09:07:40.101Z,5164.00
2018-07-10T09:08:40.079Z,4268.00
2018-07-10T09:09:40.080Z,3668.00
2018-07-10T09:10:40.052Z,3352.00
2018-07-10T09:11:40.025Z,2988.00
2018-07-10T09:12:40.000Z,3260.00
2018-07-10T09:13:39.991Z,3272.00
2018-07-10T09:14:39.967Z,3768.00
2018-07-10T09:15:39.956Z,4008.00
2018-07-10T09:16:39.963Z,4104.00
2018-07-10T09:17:39.914Z,3948.00
2018-07-10T09:18:39.896Z,3756.00
2018-07-10T09:19:39.882Z,4172.00
2018-07-10T09:20:39.880Z,4392.00
2018-07-10T09:21:39.848Z,4736.00
2018-07-10T09:22:39.866Z,4672.00
2018-07-10T09:23:39.872Z,4096.00
2018-07-10T09:24:39.832Z,3736.00
2018-07-10T09:25:39.773Z,3852.00
2018-07-10T09:26:39.787Z,3976.00
2018-07-10T09:27:39.750Z,3756.00
2018-07-10T09:28:39.728Z,4448.00
2018-07-10T09:29:39.703Z,4252.00
2018-07-10T09:30:39.723Z,3204.00
2018-07-10T09:31:39.687Z,2652.00
2018-07-10T09:32:39.667Z,3592.00
2018-07-10T09:33:39.701Z,3672.00
2018-07-10T09:34:39.616Z,3800.00
2018-07-10T09:35:39.608Z,4416.00
2018-07-10T09:36:39.582Z,4720.00
2018-07-10T09:37:39.570Z,4148.00
2018-07-10T09:38:39.557Z,3752.00
2018-07-10T09:39:39.533Z,4380.00
2018-07-10T09:40:39.522Z,5764.00
2018-07-10T09:41:39.511Z,6636.00
2018-07-10T09:42:39.488Z,8076.00
2018-07-10T09:43:39.470Z,9024.00
2018-07-10T09:44:39.453Z,8332.00
2018-07-10T09:45:39.433Z,8788.00
2018-07-10T09:46:39.414Z,9644.00
2018-07-10T09:47:39.397Z,10580.00
2018-07-10T09:48:39.401Z,11156.00
2018-07-10T09:49:39.356Z,10484.00
2018-07-10T09:50:39.373Z,8740.00
2018-07-10T09:51:39.357Z,8720.00
2018-07-10T09:52:39.313Z,9172.00
2018-07-10T09:53:39.292Z,9024.00
2018-07-10T09:54:39.364Z,6740.00
2018-07-10T09:55:39.346Z,4320.00
2018-07-10T09:56:39.245Z,3236.00
2018-07-10T09:57:39.223Z,2860.00
2018-07-10T09:58:39.205Z,2464.00
2018-07-10T09:59:39.229Z,2928.00
2018-07-10T10:00:39.205Z,4000.00
2018-07-10T10:01:39.157Z,6040.00
2018-07-10T10:02:39.173Z,8584.00
2018-07-10T10:03:39.164Z,7252.00
2018-07-10T10:04:39.112Z,5604.00
2018-07-10T10:05:39.109Z,5668.00
2018-07-10T10:06:39.078Z,5708.00
2018-07-10T10:07:39.066Z,5920.00
2018-07-10T10:08:39.083Z,6916.00
2018-07-10T10:09:39.088Z,7860.00
2018-07-10T10:10:39.065Z,7752.00
2018-07-10T10:11:39.016Z,7700.00
2018-07-10T10:12:38.990Z,7428.00
2018-07-10T10:13:38.962Z,7252.00
2018-07-10T10:14:38.957Z,6036.00
2018-07-10T10:15:38.988Z,6128.00
2018-07-10T10:16:38.912Z,6944.00
2018-07-10T10:17:38.947Z,7712.00
2018-07-10T10:18:38.881Z,7080.00
2018-07-10T10:19:38.864Z,6988.00
2018-07-10T10:20:38.884Z,6600.00
2018-07-10T10:21:38.853Z,5680.00
2018-07-10T10:22:38.819Z,4836.00
2018-07-10T10:23:38.795Z,4116.00
2018-07-10T10:24:38.779Z,3736.00
2018-07-10T10:25:38.831Z,3664.00
2018-07-10T10:26:38.756Z,3408.00
2018-07-10T10:27:38.746Z,3872.00
2018-07-10T10:28:38.718Z,4628.00
2018-07-10T10:29:38.716Z,4988.00
2018-07-10T10:30:38.720Z,5176.00
2018-07-10T10:31:38.668Z,5068.00
2018-07-10T10:32:38.656Z,5140.00
2018-07-10T10:33:38.640Z,4788.00
2018-07-10T10:34:38.611Z,4296.00
2018-07-10T10:35:38.647Z,4084.00
2018-07-10T10:36:38.585Z,3676.00
2018-07-10T10:37:38.574Z,3348.00
2018-07-10T10:38:38.548Z,3136.00
2018-07-10T10:39:38.561Z,2844.00
2018-07-10T10:40:38.539Z,2724.00
2018-07-10T10:41:38.498Z,3028.00
2018-07-10T10:42:38.490Z,3488.00
2018-07-10T10:43:38.477Z,3816.00
2018-07-10T10:44:38.484Z,3824.00
2018-07-10T10:45:38.448Z,4472.00
2018-07-10T10:46:38.413Z,5356.00
2018-07-10T10:47:38.453Z,4268.00
2018-07-10T10:48:38.447Z,3436.00
2018-07-10T10:49:38.365Z,3048.00
2018-07-10T10:50:38.358Z,2784.00
2018-07-10T10:51:38.349Z,2576.00
2018-07-10T10:52:38.338Z,2304.00
2018-07-10T10:53:38.299Z,2116.00
2018-07-10T10:54:38.286Z,2048.00
2018-07-10T10:55:38.275Z,2020.00
2018-07-10T10:56:38.256Z,2108.00
2018-07-10T10:57:38.235Z,2088.00
2018-07-10T10:58:38.217Z,2236.00
2018-07-10T10:59:38.235Z,2396.00
2018-07-10T11:00:38.210Z,2360.00
2018-07-10T11:01:38.287Z,2316.00
2018-07-10T11:02:38.177Z,2512.00
2018-07-10T11:03:38.188Z,2580.00
2018-07-10T11:04:38.111Z,2396.00
2018-07-10T11:05:38.101Z,2628.00
2018-07-10T11:06:38.195Z,2704.00
2018-07-10T11:07:38.063Z,2832.00
2018-07-10T11:08:38.161Z,2644.00
2018-07-10T11:09:38.050Z,2548.00
2018-07-10T11:10:38.016Z,2968.00
2018-07-10T11:11:38.004Z,3820.00
2018-07-10T11:12:37.997Z,4208.00
2018-07-10T11:13:38.011Z,4128.00
2018-07-10T11:14:37.942Z,4080.00
2018-07-10T11:15:38.086Z,4452.00
2018-07-10T11:16:37.910Z,4488.00
2018-07-10T11:17:37.922Z,3856.00
2018-07-10T11:18:37.872Z,3296.00
2018-07-10T11:19:37.901Z,3092.00
2018-07-10T11:20:37.838Z,3408.00
2018-07-10T11:21:37.817Z,3796.00
2018-07-10T11:22:37.821Z,4216.00
2018-07-10T11:23:37.817Z,5176.00
2018-07-10T11:24:37.810Z,5636.00
2018-07-10T11:25:37.790Z,4844.00
2018-07-10T11:26:37.755Z,3892.00
2018-07-10T11:27:37.749Z,3420.00
2018-07-10T11:28:37.704Z,3128.00
2018-07-10T11:29:37.716Z,2968.00
2018-07-10T11:30:37.665Z,3028.00
2018-07-10T11:31:37.654Z,2916.00
2018-07-10T11:32:37.644Z,2624.00
2018-07-10T11:33:37.623Z,2556.00
2018-07-10T11:34:37.615Z,2540.00
2018-07-10T11:35:37.618Z,2636.00
2018-07-10T11:36:37.568Z,2872.00
2018-07-10T11:37:37.562Z,3096.00
2018-07-10T11:38:37.534Z,3220.00
2018-07-10T11:39:37.513Z,3084.00
2018-07-10T11:40:37.503Z,2892.00
2018-07-10T11:41:37.478Z,3176.00
2018-07-10T11:42:37.482Z,3312.00
2018-07-10T11:43:37.446Z,3072.00
2018-07-10T11:44:37.480Z,2852.00
2018-07-10T11:45:37.478Z,3204.00
2018-07-10T11:46:37.401Z,3168.00
2018-07-10T11:49:00.441Z,2696.00
2018-07-10T11:50:00.390Z,2928.00
2018-07-10T11:51:00.380Z,3000.00
2018-07-10T11:52:00.430Z,3012.00
2018-07-10T11:53:00.362Z,2928.00
2018-07-10T11:54:00.569Z,2968.00
2018-07-10T11:55:00.307Z,3032.00
2018-07-10T11:56:00.289Z,2716.00
2018-07-10T11:57:00.303Z,2424.00
2018-07-10T11:58:00.272Z,2212.00
2018-07-10T11:59:00.245Z,2100.00
2018-07-10T12:00:00.223Z,2188.00
2018-07-10T12:01:00.216Z,2380.00
2018-07-10T12:02:00.283Z,2700.00
2018-07-10T12:03:01.641Z,2664.00
2018-07-10T12:04:00.152Z,2508.00
2018-07-10T12:05:00.188Z,2556.00
2018-07-10T12:06:00.134Z,2604.00
2018-07-10T12:07:00.172Z,2516.00
2018-07-10T12:08:00.092Z,2504.00
2018-07-10T12:09:00.099Z,2280.00
2018-07-10T12:10:00.051Z,2032.00
2018-07-10T12:11:00.059Z,1908.00
2018-07-10T12:12:00.027Z,1772.00
2018-07-10T12:13:00.029Z,1732.00
2018-07-10T12:13:59.986Z,1756.00
2018-07-10T12:14:59.990Z,1868.00
2018-07-10T12:15:59.944Z,1984.00
2018-07-10T12:22:36.036Z,1792.00
2018-07-10T12:22:56.417Z,1864.00
2018-07-10T12:23:56.454Z,1700.00
2018-07-10T12:24:56.384Z,1812.00
2018-07-10T12:25:56.371Z,2604.00
2018-07-10T12:26:56.344Z,2968.00
2018-07-10T12:27:56.390Z,2716.00
2018-07-10T12:28:56.324Z,2772.00
2018-07-10T12:29:56.289Z,3216.00
2018-07-10T12:30:56.289Z,4112.00
2018-07-10T12:31:56.274Z,4176.00
2018-07-10T12:32:56.232Z,4540.00